Time;durP1;ratioP1;P1;durP2;ratioP2;P2;SDS_P1;SDS_P2;PMS_P1;PMS_P2;Temp;Humidity;BMP_temperature;BMP_pressure;BME280_temperature;BME280_humidity;BME280_pressure;Samples;Min_cycle;Max_cycle;Signal;HPM_P1;HPM_P2
2021/10/17 00:00:51;;;;;;;4.40;2.80;;;6.80;99.90;;;7.76;100.00;98544.50;5075373;28;20436;-80
2021/10/17 00:03:20;;;;;;;8.03;3.50;;;6.80;99.90;;;7.77;100.00;98542.72;5082233;28;20451;-80
2021/10/17 00:05:49;;;;;;;9.03;3.27;;;6.90;99.90;;;7.76;100.00;98548.88;5076020;28;20440;-80
2021/10/17 00:08:17;;;;;;;6.50;3.50;;;6.80;99.90;;;7.76;100.00;98543.66;5084121;28;20827;-80
2021/10/17 00:10:46;;;;;;;7.93;3.43;;;6.80;99.90;;;7.60;100.00;98550.44;5087653;28;20508;-80
2021/10/17 00:13:16;;;;;;;8.93;3.50;;;6.60;99.90;;;7.59;100.00;98551.41;5080291;28;20488;-80
2021/10/17 00:15:45;;;;;;;5.10;2.93;;;6.60;99.90;;;7.59;100.00;98551.41;5077676;28;20492;-80
2021/10/17 00:18:13;;;;;;;5.23;3.37;;;6.60;99.90;;;7.57;100.00;98544.72;5076235;28;20444;-80
2021/10/17 00:20:43;;;;;;;4.03;3.23;;;6.50;99.90;;;7.56;100.00;98546.53;5087764;28;20500;-80
2021/10/17 00:23:11;;;;;;;6.73;3.30;;;6.60;99.90;;;7.59;100.00;98542.78;5082434;28;20849;-79
2021/10/17 00:25:40;;;;;;;4.33;3.20;;;6.60;99.90;;;7.54;100.00;98545.84;5087313;28;20443;-80
2021/10/17 00:28:08;;;;;;;8.43;3.13;;;6.50;99.90;;;7.48;100.00;98548.25;5086430;28;20500;-80
2021/10/17 00:30:39;;;;;;;6.17;3.53;;;6.40;99.90;;;7.45;100.00;98545.97;5089948;28;20448;-80
2021/10/17 00:33:08;;;;;;;6.83;3.53;;;6.40;99.90;;;7.44;100.00;98550.34;5083702;28;20582;-80
2021/10/17 00:35:37;;;;;;;6.40;2.97;;;6.40;99.90;;;7.50;100.00;98543.72;5080378;28;20571;-79
2021/10/17 00:38:05;;;;;;;5.57;3.40;;;6.50;99.90;;;7.56;100.00;98549.13;5086178;28;20432;-80
2021/10/17 00:40:34;;;;;;;4.00;2.80;;;6.60;99.90;;;7.56;100.00;98538.72;5078719;28;20439;-79
2021/10/17 00:43:04;;;;;;;4.17;2.73;;;6.60;99.90;;;7.51;100.00;98540.97;5083805;28;20508;-80
2021/10/17 00:45:38;;;;;;;6.90;2.83;;;6.60;99.90;;;7.44;100.00;98539.13;5085878;28;20451;-79
2021/10/17 00:48:07;;;;;;;4.90;3.17;;;6.40;99.90;;;7.36;100.00;98541.69;5080406;28;21010;-80
2021/10/17 00:50:36;;;;;;;4.87;2.77;;;6.30;99.90;;;7.35;100.00;98540.06;5084313;28;21001;-79
2021/10/17 00:53:05;;;;;;;5.37;3.10;;;6.30;99.90;;;7.37;100.00;98544.13;5078477;28;20451;-80
2021/10/17 00:55:34;;;;;;;14.10;3.27;;;6.40;99.90;;;7.37;100.00;98545.91;5082620;28;20463;-80
2021/10/17 00:58:20;;;;;;;4.70;3.07;;;6.30;99.90;;;7.39;100.00;98536.19;5082181;28;20466;-80
2021/10/17 01:00:51;;;;;;;3.90;2.80;;;6.40;99.90;;;7.40;100.00;98540.41;5083675;28;20501;-80
2021/10/17 01:03:20;;;;;;;11.17;3.50;;;6.40;99.90;;;7.41;100.00;98544.66;5079983;28;20972;-80
2021/10/17 01:05:49;;;;;;;7.07;2.90;;;6.40;99.90;;;7.44;100.00;98539.94;5078202;28;20444;-80
2021/10/17 01:08:19;;;;;;;5.67;2.80;;;6.50;99.90;;;7.45;100.00;98544.19;5081363;28;20560;-80
2021/10/17 01:10:49;;;;;;;4.17;2.73;;;6.50;99.90;;;7.45;100.00;98539.00;5078189;28;20450;-80
2021/10/17 01:13:19;;;;;;;10.73;3.10;;;6.50;99.90;;;7.46;100.00;98538.00;5076327;28;20503;-80
2021/10/17 01:15:53;;;;;;;4.80;2.57;;;6.50;99.90;;;7.46;100.00;98543.19;5071690;28;20451;-79
2021/10/17 01:18:25;;;;;;;4.40;2.40;;;6.50;99.90;;;7.47;100.00;98534.44;5077937;28;20530;-80
2021/10/17 01:20:55;;;;;;;10.10;3.50;;;6.60;99.90;;;7.48;100.00;98530.88;5085949;28;20480;-80
2021/10/17 01:23:23;;;;;;;4.00;3.10;;;6.60;99.90;;;7.48;100.00;98530.88;5084551;28;20588;-79
2021/10/17 01:25:52;;;;;;;4.33;2.90;;;6.50;99.90;;;7.42;100.00;98526.28;5076091;28;20517;-80
2021/10/17 01:28:21;;;;;;;3.83;3.10;;;6.50;99.90;;;7.41;100.00;98529.84;5078483;28;20512;-80
2021/10/17 01:30:51;;;;;;;5.40;2.60;;;6.50;99.90;;;7.35;100.00;98525.28;5082793;28;20495;-80
2021/10/17 01:33:20;;;;;;;3.30;2.77;;;6.40;99.90;;;7.32;100.00;98525.59;5080662;28;20519;-79
2021/10/17 01:35:49;;;;;;;7.53;2.97;;;6.30;99.90;;;7.27;100.00;98520.03;5085579;28;20451;-80
2021/10/17 01:38:18;;;;;;;4.50;2.80;;;6.20;99.90;;;7.25;100.00;98519.38;5084817;28;20451;-80
2021/10/17 01:40:48;;;;;;;6.90;3.03;;;6.30;99.90;;;7.21;100.00;98517.22;5086410;28;20883;-80
2021/10/17 01:43:16;;;;;;;5.30;2.80;;;6.20;99.90;;;7.20;100.00;98516.41;5073441;28;20496;-80
2021/10/17 01:45:45;;;;;;;8.67;2.80;;;6.20;99.90;;;7.22;100.00;98516.28;5083041;28;20505;-80
2021/10/17 01:48:13;;;;;;;4.90;3.00;;;6.20;99.90;;;7.12;100.00;98516.34;5081095;28;20491;-80
2021/10/17 01:50:42;;;;;;;6.90;3.00;;;6.10;99.90;;;7.09;100.00;98519.25;5084213;28;20456;-79
2021/10/17 01:53:10;;;;;;;3.60;2.90;;;6.00;99.90;;;7.03;100.00;98512.09;5079859;28;20472;-79
2021/10/17 01:55:40;;;;;;;6.97;3.30;;;6.00;99.90;;;6.92;100.00;98507.13;5079693;28;20441;-79
2021/10/17 01:58:09;;;;;;;7.10;2.80;;;5.80;99.90;;;6.78;100.00;98510.28;5080438;28;20501;-80
2021/10/17 02:00:37;;;;;;;4.70;2.73;;;5.70;99.90;;;6.81;100.00;98504.78;5079541;28;20540;-79
2021/10/17 02:03:06;;;;;;;8.63;3.10;;;5.80;99.90;;;6.84;100.00;98501.88;5077981;28;20962;-79
2021/10/17 02:05:34;;;;;;;3.23;2.50;;;5.80;99.90;;;6.83;100.00;98506.28;5086524;28;20504;-80
2021/10/17 02:08:03;;;;;;;5.37;3.27;;;5.80;99.90;;;6.75;100.00;98502.78;5086022;28;20509;-80
2021/10/17 02:10:32;;;;;;;3.77;2.40;;;5.70;99.90;;;6.73;100.00;98497.75;5082474;28;20459;-79
2021/10/17 02:13:02;;;;;;;5.50;2.80;;;5.70;99.90;;;6.73;100.00;98497.75;5083188;28;20511;-79
2021/10/17 02:15:30;;;;;;;4.40;2.80;;;5.70;99.90;;;6.79;100.00;98497.16;5082765;28;20525;-79
2021/10/17 02:17:59;;;;;;;4.10;2.83;;;5.80;99.90;;;6.74;100.00;98494.16;5076295;28;20460;-79
2021/10/17 02:20:32;;;;;;;5.33;2.83;;;5.70;99.90;;;6.74;100.00;98493.34;5075095;28;20545;-80
2021/10/17 02:23:03;;;;;;;3.30;2.67;;;5.70;99.90;;;6.77;100.00;98493.88;5075523;28;20444;-80
2021/10/17 02:25:33;;;;;;;6.37;3.03;;;5.80;99.90;;;6.70;100.00;98492.03;5081352;28;20443;-80
2021/10/17 02:28:03;;;;;;;4.37;2.93;;;5.70;99.90;;;6.66;100.00;98490.72;5087211;28;20439;-80
2021/10/17 02:30:31;;;;;;;6.40;2.60;;;5.60;99.90;;;6.55;100.00;98494.38;5083289;28;20451;-80
2021/10/17 02:33:00;;;;;;;6.70;2.90;;;5.50;99.90;;;6.55;100.00;98489.16;5079935;28;20449;-79
2021/10/17 02:35:28;;;;;;;3.23;2.70;;;5.50;99.90;;;6.58;100.00;98489.69;5082220;28;20454;-79
2021/10/17 02:37:57;;;;;;;4.70;2.87;;;5.60;99.90;;;6.43;100.00;98496.38;5082808;28;20456;-80
2021/10/17 02:40:25;;;;;;;5.63;2.77;;;5.40;99.90;;;6.45;100.00;98494.47;5078522;28;20456;-79
2021/10/17 02:42:54;;;;;;;4.93;2.47;;;5.50;99.90;;;6.46;100.00;98496.06;5076323;28;20481;-79
2021/10/17 02:45:24;;;;;;;4.27;2.73;;;5.60;99.90;;;6.43;100.00;98498.97;5081058;28;20462;-79
2021/10/17 02:47:53;;;;;;;4.77;2.57;;;5.50;99.90;;;6.37;100.00;98494.38;5077339;28;20522;-79
2021/10/17 02:50:21;;;;;;;4.60;3.07;;;5.40;99.90;;;6.46;100.00;98497.84;5072490;28;20642;-79
2021/10/17 02:52:50;;;;;;;3.20;2.43;;;5.50;99.90;;;6.50;100.00;98492.22;5075491;28;20509;-80
2021/10/17 02:55:18;;;;;;;6.60;2.20;;;5.50;99.90;;;6.49;100.00;98500.97;5074244;28;20505;-80
2021/10/17 02:57:47;;;;;;;4.57;3.00;;;5.50;99.90;;;6.49;100.00;98500.16;5077186;28;20501;-79
2021/10/17 03:00:17;;;;;;;5.30;2.80;;;5.60;99.90;;;6.51;100.00;98493.03;5079514;28;20480;-79
2021/10/17 03:02:47;;;;;;;6.60;2.90;;;5.60;99.90;;;6.55;100.00;98499.56;5076032;28;20443;-79
2021/10/17 03:05:16;;;;;;;5.33;2.17;;;5.60;99.90;;;6.56;100.00;98504.59;5074224;28;20443;-79
2021/10/17 03:07:44;;;;;;;5.33;3.03;;;5.60;99.90;;;6.62;100.00;98500.59;5079551;28;20496;-80
2021/10/17 03:10:13;;;;;;;6.67;2.57;;;5.70;99.90;;;6.63;100.00;98497.00;5070436;28;20544;-80
2021/10/17 03:12:42;;;;;;;3.80;2.50;;;5.70;99.90;;;6.65;100.00;98499.47;5075645;28;20491;-80
2021/10/17 03:15:11;;;;;;;2.87;2.57;;;5.70;99.90;;;6.69;100.00;98490.41;5081946;28;20442;-80
2021/10/17 03:17:40;;;;;;;5.40;3.00;;;5.80;99.90;;;6.73;100.00;98491.75;5083311;28;20866;-79
2021/10/17 03:20:11;;;;;;;4.47;2.53;;;5.80;99.90;;;6.74;100.00;98486.38;5075752;28;20495;-80
2021/10/17 03:22:41;;;;;;;4.20;2.53;;;5.80;99.90;;;6.72;100.00;98480.53;5076405;28;21018;-79
2021/10/17 03:25:10;;;;;;;4.07;2.60;;;5.80;99.90;;;6.75;100.00;98484.59;5074247;28;20449;-80
2021/10/17 03:27:38;;;;;;;5.07;2.67;;;5.90;99.90;;;6.73;100.00;98478.75;5080508;28;20475;-80
2021/10/17 03:30:08;;;;;;;6.90;3.60;;;5.80;99.90;;;6.75;100.00;98482.81;5077207;28;20524;-79
2021/10/17 03:32:37;;;;;;;13.00;2.77;;;5.80;99.90;;;6.76;100.00;98478.44;5073879;28;20885;-79
2021/10/17 03:35:06;;;;;;;5.77;2.60;;;5.90;99.90;;;6.72;100.00;98479.72;5077409;28;20463;-80
2021/10/17 03:37:36;;;;;;;5.77;2.70;;;5.80;99.90;;;6.73;100.00;98478.75;5077020;28;20463;-80
2021/10/17 03:40:07;;;;;;;2.47;2.20;;;5.70;99.90;;;6.79;100.00;98478.94;5078649;28;20447;-80
2021/10/17 03:42:36;;;;;;;3.13;2.63;;;5.90;99.90;;;6.71;100.00;98472.88;5081506;28;20502;-79
2021/10/17 03:45:06;;;;;;;3.33;2.37;;;5.80;99.90;;;6.67;100.00;98471.53;5085078;28;20447;-80
2021/10/17 03:47:34;;;;;;;4.60;3.10;;;5.70;99.90;;;6.70;100.00;98466.06;5081267;28;20463;-80
2021/10/17 03:50:03;;;;;;;4.13;2.60;;;5.80;99.90;;;6.78;100.00;98473.91;5080137;28;20523;-80
2021/10/17 03:52:33;;;;;;;5.77;2.83;;;5.90;99.90;;;6.83;100.00;98472.50;5075745;28;20494;-79
2021/10/17 03:55:03;;;;;;;6.10;3.07;;;5.90;99.90;;;6.88;100.00;98474.59;5077881;28;20849;-79
2021/10/17 03:57:32;;;;;;;8.40;2.60;;;5.90;99.90;;;6.92;100.00;98475.94;5082269;28;20463;-79
2021/10/17 04:00:00;;;;;;;4.13;2.97;;;6.00;99.90;;;6.95;100.00;98480.81;5090303;28;20463;-79
2021/10/17 04:02:29;;;;;;;5.47;3.07;;;6.00;99.90;;;6.95;100.00;98480.81;5084732;28;20879;-80
2021/10/17 04:04:58;;;;;;;10.30;2.73;;;6.00;99.90;;;6.98;100.00;98480.50;5084751;28;20452;-80
2021/10/17 04:07:26;;;;;;;5.80;2.60;;;6.10;99.90;;;6.97;100.00;98484.09;5083804;28;20714;-79
2021/10/17 04:09:55;;;;;;;3.73;2.60;;;6.00;99.90;;;6.99;100.00;98480.38;5080841;28;20498;-80
2021/10/17 04:12:24;;;;;;;8.93;3.43;;;6.10;99.90;;;7.04;100.00;98472.13;5075764;28;20874;-80
2021/10/17 04:14:53;;;;;;;6.33;2.87;;;6.10;99.90;;;7.07;100.00;98471.81;5080650;28;20505;-80
2021/10/17 04:17:21;;;;;;;4.03;2.47;;;6.20;99.90;;;7.05;100.00;98471.13;5083733;28;20533;-79
2021/10/17 04:19:50;;;;;;;5.67;2.37;;;6.20;99.90;;;7.03;100.00;98471.31;5082549;28;20513;-79
2021/10/17 04:22:20;;;;;;;2.70;2.50;;;6.10;99.90;;;7.03;100.00;98473.91;5084348;28;20487;-80
2021/10/17 04:24:49;;;;;;;4.67;2.40;;;6.10;99.90;;;7.04;100.00;98470.34;5079867;28;20988;-79
2021/10/17 04:27:18;;;;;;;4.00;2.77;;;6.10;99.90;;;7.04;100.00;98464.31;5079833;28;20439;-79
2021/10/17 04:29:47;;;;;;;8.03;2.87;;;6.10;99.90;;;7.11;100.00;98475.75;5083741;28;20999;-80
2021/10/17 04:32:16;;;;;;;7.13;2.93;;;6.20;99.90;;;7.14;100.00;98466.81;5081262;28;20872;-79
2021/10/17 04:34:44;;;;;;;3.83;2.60;;;6.20;99.90;;;7.11;100.00;98473.13;5081048;28;20498;-79
2021/10/17 04:37:13;;;;;;;7.93;3.40;;;6.20;99.90;;;7.10;100.00;98463.69;5086451;28;20704;-80
2021/10/17 04:39:42;;;;;;;7.33;2.90;;;6.20;99.90;;;7.16;100.00;98476.06;5074781;28;20448;-79
2021/10/17 04:42:11;;;;;;;6.20;3.30;;;6.30;99.90;;;7.17;100.00;98469.91;5076370;28;20483;-80
2021/10/17 04:44:40;;;;;;;4.27;2.57;;;6.20;99.90;;;7.19;100.00;98470.56;5073076;28;20436;-80
2021/10/17 04:47:09;;;;;;;6.53;2.90;;;6.30;99.90;;;7.22;100.00;98466.84;5083653;28;20452;-79
2021/10/17 04:49:38;;;;;;;4.77;2.63;;;6.30;99.90;;;7.27;100.00;98475.81;5079342;28;20492;-79
2021/10/17 04:52:07;;;;;;;3.27;2.80;;;6.40;99.90;;;7.31;100.00;98478.91;5085790;28;20520;-79
2021/10/17 04:54:35;;;;;;;10.23;3.17;;;6.40;99.90;;;7.35;100.00;98469.84;5074788;28;20516;-80
2021/10/17 04:57:04;;;;;;;5.73;3.07;;;6.50;99.90;;;7.36;100.00;98463.63;5083585;28;20463;-80
2021/10/17 04:59:34;;;;;;;6.30;3.23;;;6.50;99.90;;;7.31;100.00;98466.72;5081726;28;20520;-79
2021/10/17 05:02:02;;;;;;;5.10;2.70;;;6.50;99.90;;;7.29;100.00;98471.25;5081853;28;20528;-80
2021/10/17 05:04:32;;;;;;;44.27;20.67;;;6.40;99.90;;;7.34;100.00;98471.63;5084475;28;20567;-81
2021/10/17 05:07:01;;;;;;;5.10;3.03;;;6.50;99.90;;;7.37;100.00;98471.31;5084069;28;20541;-80
2021/10/17 05:09:29;;;;;;;9.47;2.30;;;6.50;99.90;;;7.33;100.00;98469.16;5085605;28;20468;-80
2021/10/17 05:11:58;;;;;;;5.67;2.90;;;6.50;99.90;;;7.26;100.00;98471.56;5083451;28;20534;-80
2021/10/17 05:14:26;;;;;;;3.23;2.20;;;6.40;99.90;;;7.25;100.00;98472.56;5075540;28;20445;-80
2021/10/17 05:16:55;;;;;;;4.80;2.67;;;6.30;99.90;;;7.27;100.00;98481.00;5082215;28;20471;-80
2021/10/17 05:19:24;;;;;;;2.97;2.50;;;6.40;99.90;;;7.26;100.00;98474.16;5075117;28;21010;-80
2021/10/17 05:21:54;;;;;;;4.33;2.30;;;6.40;99.90;;;7.22;100.00;98477.25;5077994;28;20468;-81
2021/10/17 05:24:22;;;;;;;3.20;2.40;;;6.30;99.90;;;7.22;100.00;98464.25;5080762;28;20448;-80
2021/10/17 05:26:51;;;;;;;4.80;2.60;;;6.30;99.90;;;7.19;100.00;98477.53;5087996;28;20537;-80
2021/10/17 05:29:19;;;;;;;7.50;2.23;;;6.30;99.90;;;7.11;100.00;98474.91;5080376;28;21004;-80
2021/10/17 05:31:48;;;;;;;4.53;2.63;;;6.20;99.90;;;7.12;100.00;98482.53;5082388;28;20500;-80
2021/10/17 05:34:16;;;;;;;4.37;2.73;;;6.20;99.90;;;7.15;100.00;98473.66;5082821;28;20548;-80
2021/10/17 05:36:45;;;;;;;3.80;2.40;;;6.30;99.90;;;7.19;100.00;98473.16;5076415;28;20456;-81
2021/10/17 05:39:14;;;;;;;3.80;2.40;;;6.30;99.90;;;7.20;100.00;98474.81;5082312;28;20901;-79
2021/10/17 05:41:43;;;;;;;3.17;2.30;;;6.30;99.90;;;7.19;100.00;98478.34;5082581;28;20545;-80
2021/10/17 05:44:12;;;;;;;4.07;3.13;;;6.30;99.90;;;7.18;100.00;98481.13;5079310;28;20455;-80
2021/10/17 05:46:40;;;;;;;4.30;2.70;;;6.30;99.90;;;7.19;100.00;98480.97;5083670;28;20443;-80
2021/10/17 05:49:09;;;;;;;3.40;3.10;;;6.30;99.90;;;7.21;100.00;98479.03;5079784;28;20445;-80
2021/10/17 05:51:37;;;;;;;3.20;2.87;;;6.30;99.90;;;7.23;100.00;98478.88;5082660;28;20548;-80
2021/10/17 05:54:06;;;;;;;7.30;3.30;;;6.30;99.90;;;7.23;100.00;98487.50;5083844;28;20464;-80
2021/10/17 05:56:36;;;;;;;7.10;3.57;;;6.30;99.90;;;7.24;100.00;98490.91;5085535;28;20456;-80
2021/10/17 05:59:08;;;;;;;7.10;2.93;;;6.30;99.90;;;7.25;100.00;98498.56;5085082;28;20445;-80
2021/10/17 06:01:37;;;;;;;8.97;3.33;;;6.40;99.90;;;7.27;100.00;98507.03;5068731;28;20513;-80
2021/10/17 06:04:06;;;;;;;4.00;2.87;;;6.40;99.90;;;7.28;100.00;98508.66;5080128;28;20969;-79
2021/10/17 06:06:35;;;;;;;4.63;2.93;;;6.40;99.90;;;7.31;100.00;98516.16;5081665;28;20513;-80
2021/10/17 06:09:03;;;;;;;5.50;2.30;;;6.40;99.90;;;7.32;100.00;98514.38;5081567;28;21032;-80
2021/10/17 06:11:32;;;;;;;3.43;2.97;;;6.50;99.90;;;7.33;100.00;98516.78;5081023;28;20540;-80
2021/10/17 06:14:02;;;;;;;3.10;2.53;;;6.50;99.90;;;7.33;100.00;98519.41;5077512;28;20525;-81
2021/10/17 06:16:31;;;;;;;16.87;2.97;;;6.50;99.90;;;7.33;100.00;98516.78;5080140;28;20505;-80
2021/10/17 06:19:00;;;;;;;7.83;2.67;;;6.50;99.90;;;7.35;100.00;98525.28;5078412;28;20959;-80
2021/10/17 06:21:29;;;;;;;11.00;3.13;;;6.50;99.90;;;7.35;100.00;98535.69;5085044;28;20447;-80
2021/10/17 06:23:57;;;;;;;5.67;3.63;;;6.50;99.90;;;7.33;100.00;98529.81;5080430;28;20513;-80
2021/10/17 06:26:26;;;;;;;7.47;3.30;;;6.50;99.90;;;7.34;100.00;98534.03;5075551;28;20542;-80
2021/10/17 06:28:54;;;;;;;5.97;3.17;;;6.50;99.90;;;7.37;100.00;98533.72;5078492;28;20451;-80
2021/10/17 06:31:24;;;;;;;8.77;3.70;;;6.60;99.90;;;7.35;100.00;98527.06;5085177;28;20491;-80
2021/10/17 06:33:53;;;;;;;8.70;3.43;;;6.60;99.90;;;7.39;100.00;98531.00;5081482;28;20462;-80
2021/10/17 06:36:22;;;;;;;6.23;2.83;;;6.60;99.90;;;7.39;100.00;98525.78;5078150;28;20447;-80
2021/10/17 06:38:50;;;;;;;4.90;2.70;;;6.60;99.90;;;7.40;100.00;98533.41;5084692;28;20572;-81
2021/10/17 06:41:19;;;;;;;6.63;2.90;;;6.50;99.90;;;7.44;100.00;98537.34;5078800;28;20436;-81
2021/10/17 06:43:47;;;;;;;6.33;2.73;;;6.50;99.90;;;7.47;100.00;98531.00;5081860;28;20457;-80
2021/10/17 06:46:16;;;;;;;3.60;2.53;;;6.60;99.90;;;7.50;100.00;98534.13;5087180;28;20500;-80
2021/10/17 06:48:47;;;;;;;6.90;2.37;;;6.60;99.90;;;7.51;100.00;98522.75;5076157;28;20531;-81
2021/10/17 06:51:15;;;;;;;5.13;2.60;;;6.60;99.90;;;7.44;100.00;98524.34;5074428;28;20500;-80
2021/10/17 06:53:44;;;;;;;4.33;2.40;;;6.60;99.90;;;7.46;100.00;98532.78;5083915;28;20460;-80
2021/10/17 06:56:13;;;;;;;4.90;2.90;;;6.50;99.90;;;7.51;100.00;98530.56;5073114;28;20503;-80
2021/10/17 06:58:42;;;;;;;3.37;2.50;;;6.60;99.90;;;7.54;100.00;98537.22;5077987;28;20520;-80
2021/10/17 07:01:11;;;;;;;9.03;3.10;;;6.70;99.90;;;7.60;100.00;98536.63;5077199;28;20471;-80
2021/10/17 07:03:40;;;;;;;4.63;2.87;;;6.70;99.90;;;7.64;100.00;98537.91;5082748;28;20509;-80
2021/10/17 07:06:10;;;;;;;4.27;2.87;;;6.80;99.90;;;7.66;100.00;98541.19;5081282;28;20467;-80
2021/10/17 07:08:39;;;;;;;4.67;3.07;;;6.80;99.90;;;7.70;100.00;98546.91;5078456;28;20464;-80
2021/10/17 07:11:07;;;;;;;5.60;3.10;;;6.80;99.90;;;7.73;100.00;98541.38;5074516;28;20552;-80
2021/10/17 07:13:37;;;;;;;8.50;3.70;;;6.90;99.90;;;7.76;100.00;98543.66;5065804;28;20617;-80
2021/10/17 07:16:07;;;;;;;7.37;3.70;;;6.80;99.90;;;7.79;100.00;98543.34;5079542;28;20964;-80
2021/10/17 07:18:35;;;;;;;5.07;2.93;;;6.90;99.90;;;7.85;100.00;98540.13;5081631;28;20463;-81
2021/10/17 07:21:04;;;;;;;6.17;3.63;;;7.00;99.90;;;7.88;100.00;98552.84;5080895;28;20464;-80
2021/10/17 07:23:34;;;;;;;5.60;3.80;;;7.00;99.90;;;7.92;100.00;98548.94;5078494;28;20509;-80
2021/10/17 07:26:03;;;;;;;5.03;3.27;;;7.00;99.90;;;7.95;100.00;98549.44;5077599;28;20964;-80
2021/10/17 07:28:31;;;;;;;8.40;4.60;;;7.10;99.90;;;8.00;100.00;98548.97;5078977;28;20951;-80
2021/10/17 07:31:00;;;;;;;7.60;3.73;;;7.20;99.90;;;8.02;100.00;98545.22;5075898;28;20471;-80
2021/10/17 07:33:30;;;;;;;5.27;3.00;;;7.10;99.90;;;8.05;100.00;98544.91;5078908;28;20463;-80
2021/10/17 07:35:58;;;;;;;4.37;3.10;;;7.20;99.90;;;8.09;100.00;98540.19;5081665;28;20455;-81
2021/10/17 07:38:34;;;;;;;5.30;3.17;;;7.30;99.90;;;8.12;100.00;98539.91;5076829;28;20533;-80
2021/10/17 07:41:03;;;;;;;4.40;2.97;;;7.30;99.90;;;8.14;100.00;98532.72;5078632;28;20479;-80
2021/10/17 07:43:32;;;;;;;4.77;2.37;;;7.40;99.90;;;8.17;100.00;98542.81;5075707;28;20463;-81
2021/10/17 07:46:02;;;;;;;7.57;3.43;;;7.40;99.90;;;8.21;100.00;98540.72;5076687;28;20475;-80
2021/10/17 07:48:31;;;;;;;5.60;3.00;;;7.40;99.90;;;8.25;100.00;98552.44;5079023;28;20461;-80
2021/10/17 07:50:59;;;;;;;5.00;3.03;;;7.40;99.90;;;8.29;100.00;98552.00;5074845;28;20460;-79
2021/10/17 07:53:28;;;;;;;6.30;3.60;;;7.40;99.90;;;8.31;100.00;98550.06;5077555;28;20461;-80
2021/10/17 07:55:58;;;;;;;5.20;2.80;;;7.50;99.90;;;8.33;100.00;98558.50;5081676;28;20955;-81
2021/10/17 07:58:27;;;;;;;3.80;3.00;;;7.40;99.90;;;8.34;100.00;98552.34;5076093;28;20498;-81
2021/10/17 08:00:56;;;;;;;9.30;4.07;;;7.40;99.90;;;8.35;100.00;98550.53;5081249;28;20456;-81
2021/10/17 08:03:25;;;;;;;4.33;3.03;;;7.50;99.90;;;8.38;100.00;98551.03;5079792;28;20450;-81
2021/10/17 08:05:54;;;;;;;5.70;3.30;;;7.50;99.90;;;8.42;100.00;98548.94;5080675;28;20822;-82
2021/10/17 08:08:24;;;;;;;5.67;3.17;;;7.60;99.90;;;8.45;100.00;98546.81;5080151;28;20460;-81
2021/10/17 08:10:53;;;;;;;7.07;3.70;;;7.60;99.90;;;8.47;100.00;98549.25;5078409;28;20475;-81
2021/10/17 08:13:25;;;;;;;3.80;3.10;;;7.60;99.90;;;8.50;100.00;98546.34;5078186;28;20514;-81
2021/10/17 08:15:54;;;;;;;8.70;3.53;;;7.70;99.90;;;8.52;100.00;98547.81;5078759;28;20471;-82
2021/10/17 08:18:26;;;;;;;4.50;3.60;;;7.80;99.90;;;8.59;100.00;98554.00;5080843;28;20463;-81
2021/10/17 08:20:55;;;;;;;5.03;2.90;;;7.80;99.90;;;8.67;100.00;98545.38;5078679;28;20493;-81
2021/10/17 08:23:24;;;;;;;9.40;5.53;;;7.90;99.90;;;8.75;100.00;98552.34;5073927;28;20487;-80
2021/10/17 08:25:52;;;;;;;6.63;3.47;;;8.00;99.90;;;8.82;100.00;98548.13;5077193;28;20517;-80
2021/10/17 08:28:21;;;;;;;5.03;3.67;;;8.10;99.90;;;8.90;100.00;98550.75;5076588;28;20447;-80
2021/10/17 08:30:51;;;;;;;6.77;3.60;;;8.10;99.90;;;8.96;100.00;98556.13;5086408;28;20482;-80
2021/10/17 08:33:20;;;;;;;6.23;3.90;;;8.20;99.90;;;9.04;100.00;98552.69;5082543;28;20491;-80
2021/10/17 08:35:50;;;;;;;5.27;3.57;;;8.30;99.90;;;9.09;100.00;98550.41;5084014;28;20491;-80
2021/10/17 08:38:18;;;;;;;12.10;4.10;;;8.40;99.90;;;9.17;100.00;98541.75;5077864;28;20487;-80
2021/10/17 08:40:50;;;;;;;10.00;3.50;;;8.50;99.90;;;9.24;100.00;98553.97;5083116;28;20745;-80
2021/10/17 08:43:19;;;;;;;7.40;3.03;;;8.50;99.90;;;9.31;100.00;98547.09;5081699;28;20465;-80
2021/10/17 08:45:50;;;;;;;5.90;3.10;;;8.60;99.90;;;9.38;100.00;98549.84;5077069;28;20447;-80
2021/10/17 08:48:19;;;;;;;5.23;3.10;;;8.70;99.90;;;9.42;100.00;98544.13;5078148;28;20444;-80
2021/10/17 08:50:48;;;;;;;8.43;3.10;;;8.80;99.90;;;9.47;100.00;98543.66;5079358;28;20956;-80
2021/10/17 08:53:17;;;;;;;11.70;4.30;;;8.80;99.90;;;9.52;100.00;98546.56;5078461;28;20904;-80
2021/10/17 08:55:47;;;;;;;30.43;5.03;;;8.90;99.90;;;9.56;100.00;98543.44;5080038;28;20506;-80
2021/10/17 08:58:15;;;;;;;5.97;3.77;;;8.90;99.90;;;9.61;100.00;98548.97;5082159;28;20467;-80
2021/10/17 09:00:44;;;;;;;6.13;3.73;;;9.00;99.90;;;9.66;100.00;98548.47;5074095;28;20516;-80
2021/10/17 09:03:15;;;;;;;6.23;3.70;;;9.00;99.90;;;9.72;100.00;98549.59;5081662;28;20459;-81
2021/10/17 09:05:45;;;;;;;6.43;3.30;;;9.00;99.90;;;9.75;100.00;98546.66;5080568;28;20518;-80
2021/10/17 09:08:18;;;;;;;9.90;3.20;;;9.10;99.90;;;9.78;100.00;98551.53;5085486;28;20469;-81
2021/10/17 09:10:51;;;;;;;5.40;3.23;;;9.10;99.90;;;9.81;100.00;98554.63;5082847;28;20478;-80
2021/10/17 09:13:20;;;;;;;97.13;47.87;;;9.20;99.90;;;9.85;100.00;98542.84;5087482;28;20532;-81
2021/10/17 09:15:49;;;;;;;14.87;8.33;;;9.20;99.90;;;9.87;100.00;98553.13;5080317;28;20554;-81
2021/10/17 09:18:21;;;;;;;3.63;2.70;;;9.20;99.90;;;9.89;100.00;98546.72;5083926;28;20491;-81
2021/10/17 09:21:04;;;;;;;7.30;2.87;;;9.20;99.90;;;9.91;100.00;98550.00;5079880;28;20491;-81
2021/10/17 09:23:44;;;;;;;6.30;3.10;;;9.20;99.90;;;9.94;100.00;98552.28;5078077;28;20989;-81
2021/10/17 09:26:18;;;;;;;9.87;3.27;;;9.30;99.90;;;9.97;100.00;98551.94;5083376;28;20814;-81
2021/10/17 09:28:50;;;;;;;5.83;3.53;;;9.40;99.90;;;10.01;100.00;98553.22;5083727;28;20455;-81
2021/10/17 09:31:22;;;;;;;3.43;2.90;;;9.50;99.90;;;10.04;100.00;98565.94;5079471;28;20475;-80
2021/10/17 09:33:55;;;;;;;12.80;3.47;;;9.60;99.90;;;10.09;100.00;98565.44;5075489;28;20601;-80
2021/10/17 09:36:28;;;;;;;7.60;3.20;;;9.70;99.90;;;10.14;100.00;98555.31;5073464;28;20458;-80
2021/10/17 09:39:08;;;;;;;8.60;3.37;;;9.70;99.90;;;10.19;100.00;98555.63;5080551;28;20452;-81
2021/10/17 09:41:49;;;;;;;7.30;2.80;;;9.80;99.90;;;10.27;100.00;98552.16;5085049;28;20475;-81
2021/10/17 09:44:17;;;;;;;4.53;3.10;;;9.90;99.90;;;10.31;100.00;98542.97;5081779;28;20524;-80
2021/10/17 09:46:56;;;;;;;6.33;3.90;;;10.00;99.90;;;10.38;100.00;98552.53;5082929;28;20466;-80
2021/10/17 09:49:27;;;;;;;10.60;3.87;;;9.90;99.90;;;10.48;100.00;98550.53;5079336;28;21005;-81
2021/10/17 09:52:16;;;;;;;7.30;2.73;;;10.00;99.90;;;10.56;100.00;98547.03;5080716;28;20463;-81
2021/10/17 09:54:48;;;;;;;12.83;3.60;;;10.10;99.90;;;10.63;100.00;98534.88;5081127;28;20536;-81
2021/10/17 09:57:18;;;;;;;5.50;3.07;;;10.10;99.90;;;10.70;100.00;98537.63;5077144;28;20517;-80
2021/10/17 09:59:47;;;;;;;9.27;3.40;;;10.20;99.90;;;10.74;100.00;98544.94;5083286;28;20520;-81
2021/10/17 10:02:15;;;;;;;8.53;3.70;;;10.20;99.90;;;10.80;100.00;98539.00;5079958;28;20460;-81
2021/10/17 10:04:47;;;;;;;6.37;3.00;;;10.20;99.90;;;10.88;100.00;98540.75;5086136;28;20446;-81
2021/10/17 10:07:22;;;;;;;10.63;3.53;;;10.30;99.90;;;10.96;100.00;98538.06;5083231;28;20871;-81
2021/10/17 10:09:55;;;;;;;5.10;3.10;;;10.40;99.90;;;11.02;100.00;98540.78;5079450;28;20528;-81
2021/10/17 10:12:26;;;;;;;6.03;2.60;;;10.40;99.90;;;11.08;100.00;98539.25;5079161;28;20491;-81
2021/10/17 10:14:58;;;;;;;8.23;3.10;;;10.50;99.90;;;11.14;100.00;98540.38;5081994;28;20494;-81
2021/10/17 10:17:31;;;;;;;8.73;3.20;;;10.60;99.90;;;11.18;100.00;98545.03;5073748;28;20550;-81
2021/10/17 10:20:01;;;;;;;5.40;2.77;;;10.60;99.90;;;11.24;100.00;98546.97;5081993;28;20472;-80
2021/10/17 10:22:32;;;;;;;8.30;3.43;;;10.70;99.90;;;11.28;100.00;98540.34;5083186;28;20471;-81
2021/10/17 10:25:01;;;;;;;8.77;2.80;;;10.80;99.90;;;11.30;100.00;98546.25;5085951;28;20456;-81
2021/10/17 10:27:31;;;;;;;6.30;2.80;;;10.80;99.90;;;11.36;100.00;98545.53;5080609;28;20467;-81
2021/10/17 10:30:30;;;;;;;8.83;2.80;;;10.90;99.90;;;11.40;100.00;98541.56;5077542;28;20544;-80
2021/10/17 10:33:18;;;;;;;7.50;2.83;;;10.90;99.90;;;11.44;100.00;98537.59;5045857;28;20494;-81
2021/10/17 10:36:11;;;;;;;8.13;3.30;;;11.00;99.90;;;11.42;100.00;98542.19;5073462;28;20492;-81